Time;durP1;ratioP1;P1;durP2;ratioP2;P2;SDS_P1;SDS_P2;PMS_P1;PMS_P2;Temp;Humidity;BMP_temperature;BMP_pressure;BME280_temperature;BME280_humidity;BME280_pressure;Samples;Min_cycle;Max_cycle;Signal;HPM_P1;HPM_P2
2023/10/20 00:02:02;;;;;;;8.88;7.97;;;17.90;77.40;;;;;;4991214;28;20037;-54
2023/10/20 00:04:29;;;;;;;8.20;7.40;;;18.00;77.40;;;;;;4991231;28;20122;-53
2023/10/20 00:06:58;;;;;;;11.02;8.45;;;17.90;77.40;;;;;;4989885;28;20039;-53
2023/10/20 00:09:25;;;;;;;8.45;7.60;;;18.00;77.30;;;;;;4992858;28;20066;-52
2023/10/20 00:11:52;;;;;;;10.23;7.45;;;17.90;77.20;;;;;;4991133;28;20042;-53
2023/10/20 00:14:19;;;;;;;8.82;7.93;;;18.00;77.30;;;;;;4989986;28;20046;-52
2023/10/20 00:16:46;;;;;;;8.77;7.35;;;18.00;77.20;;;;;;4989895;28;20042;-53
2023/10/20 00:19:13;;;;;;;8.80;7.32;;;18.00;77.20;;;;;;4988423;28;20042;-51
2023/10/20 00:21:45;;;;;;;9.23;7.40;;;18.00;77.20;;;;;;4991558;28;20081;-53
2023/10/20 00:24:12;;;;;;;8.32;6.85;;;17.90;77.20;;;;;;4992879;28;20070;-53
2023/10/20 00:26:41;;;;;;;8.07;7.20;;;18.00;77.30;;;;;;4984901;28;20117;-51
2023/10/20 00:29:09;;;;;;;8.30;7.40;;;18.00;77.40;;;;;;4991112;28;20129;-51
2023/10/20 00:31:39;;;;;;;10.00;8.82;;;18.00;77.30;;;;;;4989959;28;20050;-53
2023/10/20 00:34:08;;;;;;;9.70;8.30;;;18.00;77.30;;;;;;4990571;28;20046;-52
2023/10/20 00:36:34;;;;;;;8.00;7.20;;;17.90;77.30;;;;;;4991156;28;20043;-49
2023/10/20 00:39:02;;;;;;;7.63;6.82;;;18.00;77.30;;;;;;4988320;28;20047;-53
2023/10/20 00:41:29;;;;;;;8.60;7.68;;;17.90;77.30;;;;;;4991217;28;20377;-52
2023/10/20 00:43:57;;;;;;;10.23;8.05;;;17.90;77.20;;;;;;4988819;28;20117;-50
2023/10/20 00:46:24;;;;;;;8.77;7.60;;;18.00;77.30;;;;;;4989505;28;20042;-50
2023/10/20 00:48:51;;;;;;;9.77;7.82;;;17.90;77.30;;;;;;5006021;28;20775;-53
2023/10/20 00:51:18;;;;;;;11.38;8.25;;;17.90;77.20;;;;;;4978639;28;20043;-51
2023/10/20 00:53:47;;;;;;;7.90;7.03;;;17.90;77.20;;;;;;4992206;28;20050;-52
2023/10/20 00:56:17;;;;;;;9.32;7.70;;;17.90;77.40;;;;;;4984274;28;20038;-49
2023/10/20 00:58:43;;;;;;;9.32;7.40;;;17.90;77.30;;;;;;4991217;28;20039;-53
2023/10/20 01:01:12;;;;;;;9.07;7.70;;;17.90;77.30;;;;;;4989372;28;20058;-53
2023/10/20 01:03:39;;;;;;;10.73;8.45;;;17.90;77.30;;;;;;4984869;28;20046;-53
2023/10/20 01:06:07;;;;;;;8.32;7.53;;;17.90;77.40;;;;;;4985430;28;20511;-49
2023/10/20 01:08:33;;;;;;;9.93;7.60;;;17.90;77.40;;;;;;4989874;28;20137;-53
2023/10/20 01:11:00;;;;;;;8.73;7.82;;;17.90;77.50;;;;;;4990477;28;20066;-53
2023/10/20 01:13:27;;;;;;;10.23;7.22;;;17.90;77.50;;;;;;4990139;28;20050;-51
2023/10/20 01:15:54;;;;;;;8.32;7.22;;;17.90;77.50;;;;;;4983862;28;20074;-53
2023/10/20 01:18:21;;;;;;;9.82;8.82;;;17.90;77.50;;;;;;4989098;28;20038;-51
2023/10/20 01:20:48;;;;;;;8.80;7.45;;;17.90;77.50;;;;;;4990532;28;20050;-51
2023/10/20 01:23:15;;;;;;;9.25;7.47;;;17.90;77.60;;;;;;4974094;28;20045;-53
2023/10/20 01:25:43;;;;;;;9.57;7.22;;;17.90;77.60;;;;;;4986010;28;20058;-52
2023/10/20 01:28:10;;;;;;;8.27;6.78;;;17.90;77.60;;;;;;4989066;28;20096;-53
2023/10/20 01:30:38;;;;;;;8.65;7.80;;;17.80;77.50;;;;;;4990369;28;20492;-49
2023/10/20 01:33:04;;;;;;;9.60;7.60;;;17.80;77.50;;;;;;4987083;28;20637;-51
2023/10/20 01:35:31;;;;;;;8.88;7.35;;;17.80;77.50;;;;;;4986744;28;20047;-48
2023/10/20 01:37:59;;;;;;;8.20;7.30;;;17.80;77.40;;;;;;4989913;28;20124;-55
2023/10/20 01:40:28;;;;;;;8.27;7.20;;;17.80;77.40;;;;;;4986024;28;20109;-49
2023/10/20 01:42:55;;;;;;;7.53;6.47;;;17.80;77.40;;;;;;4990084;28;20505;-47
2023/10/20 01:45:22;;;;;;;9.90;7.63;;;17.80;77.50;;;;;;4988401;28;20070;-52
2023/10/20 01:47:49;;;;;;;8.38;7.57;;;17.80;77.70;;;;;;4988343;28;20038;-50
2023/10/20 01:50:17;;;;;;;8.73;7.80;;;17.80;77.80;;;;;;4988415;28;20125;-50
2023/10/20 01:52:44;;;;;;;8.90;7.10;;;17.80;78.00;;;;;;4989511;28;20400;-53
2023/10/20 01:55:11;;;;;;;9.30;8.20;;;17.80;78.00;;;;;;4985813;28;20117;-50
2023/10/20 01:57:43;;;;;;;11.63;8.05;;;17.80;78.00;;;;;;4984756;28;20048;-50
2023/10/20 02:00:13;;;;;;;7.97;6.80;;;17.80;78.00;;;;;;4988624;28;20053;-52
2023/10/20 02:02:41;;;;;;;8.70;7.85;;;17.70;77.90;;;;;;4997517;28;20104;-53
2023/10/20 02:05:08;;;;;;;9.07;7.85;;;17.80;78.00;;;;;;4988481;28;20045;-49
2023/10/20 02:07:36;;;;;;;9.25;7.82;;;17.80;78.10;;;;;;4990816;28;20030;-52
2023/10/20 02:10:03;;;;;;;8.52;7.50;;;17.70;78.10;;;;;;4989854;28;20042;-53
2023/10/20 02:12:30;;;;;;;8.43;7.10;;;17.70;78.10;;;;;;4985680;28;20508;-52
2023/10/20 02:14:59;;;;;;;8.98;7.65;;;17.70;78.20;;;;;;4987308;28;20483;-53
2023/10/20 02:17:32;;;;;;;8.32;7.07;;;17.70;78.20;;;;;;4984051;28;20042;-52
2023/10/20 02:19:59;;;;;;;8.88;7.03;;;17.70;78.30;;;;;;4988009;28;20532;-50
2023/10/20 02:22:26;;;;;;;8.93;7.68;;;17.70;78.40;;;;;;4987853;28;20050;-51
2023/10/20 02:24:53;;;;;;;9.15;8.00;;;17.70;78.40;;;;;;4986067;28;20030;-53
2023/10/20 02:27:20;;;;;;;9.30;7.40;;;17.70;78.40;;;;;;4988235;28;20070;-51
2023/10/20 02:29:46;;;;;;;9.82;7.82;;;17.70;78.40;;;;;;4983485;28;20485;-50
2023/10/20 02:32:13;;;;;;;8.32;7.07;;;17.70;78.40;;;;;;4988480;28;20493;-50
2023/10/20 02:34:40;;;;;;;7.80;7.00;;;17.70;78.40;;;;;;4986916;28;20038;-52
2023/10/20 02:37:09;;;;;;;10.50;7.72;;;17.70;78.30;;;;;;4989346;28;20467;-53
2023/10/20 02:39:38;;;;;;;8.32;7.55;;;17.70;78.40;;;;;;4988695;28;20121;-48
2023/10/20 02:42:05;;;;;;;10.18;7.32;;;17.70;78.50;;;;;;4987144;28;20038;-53
2023/10/20 02:44:31;;;;;;;9.68;7.22;;;17.70;78.60;;;;;;4988043;28;20117;-49
2023/10/20 02:47:01;;;;;;;9.82;7.63;;;17.60;78.60;;;;;;4990616;28;20062;-47
2023/10/20 02:49:27;;;;;;;8.65;7.63;;;17.70;78.70;;;;;;4987506;28;20520;-51
2023/10/20 02:51:55;;;;;;;9.90;7.28;;;17.70;78.90;;;;;;4985412;28;20062;-52
2023/10/20 02:54:22;;;;;;;8.88;7.85;;;17.70;78.90;;;;;;4988842;28;20074;-52
2023/10/20 02:56:48;;;;;;;9.23;8.02;;;17.70;79.00;;;;;;4986568;28;20078;-53
2023/10/20 02:59:15;;;;;;;8.70;7.80;;;17.70;79.20;;;;;;5004453;28;20050;-53
2023/10/20 03:01:43;;;;;;;8.13;7.13;;;17.70;79.20;;;;;;4989327;28;20043;-53
2023/10/20 03:04:10;;;;;;;8.05;7.25;;;17.70;79.20;;;;;;4989011;28;20121;-51
2023/10/20 03:06:37;;;;;;;7.97;7.18;;;17.80;79.20;;;;;;4985578;28;20035;-50
2023/10/20 03:09:04;;;;;;;9.13;7.00;;;17.80;79.30;;;;;;4989502;28;20070;-50
2023/10/20 03:11:30;;;;;;;8.63;6.72;;;17.80;79.30;;;;;;4986679;28;20093;-53
2023/10/20 03:13:58;;;;;;;9.85;7.22;;;17.80;79.30;;;;;;4986458;28;20042;-51
2023/10/20 03:16:25;;;;;;;11.30;8.43;;;17.80;79.30;;;;;;4987252;28;20081;-53
2023/10/20 03:18:52;;;;;;;7.68;6.68;;;17.80;79.20;;;;;;4993783;28;20039;-52
2023/10/20 03:21:18;;;;;;;6.90;6.30;;;17.90;79.30;;;;;;4985625;28;20049;-53
2023/10/20 03:23:45;;;;;;;6.93;6.05;;;17.90;79.30;;;;;;4968247;28;20062;-53
2023/10/20 03:26:13;;;;;;;7.70;5.78;;;17.90;79.30;;;;;;4981566;28;20047;-49
2023/10/20 03:28:40;;;;;;;6.80;5.65;;;17.90;79.30;;;;;;4986923;28;20036;-49
2023/10/20 03:31:07;;;;;;;7.28;5.80;;;17.90;79.30;;;;;;4985887;28;20034;-53
2023/10/20 03:33:34;;;;;;;6.15;5.55;;;17.90;79.20;;;;;;4991607;28;20050;-53
2023/10/20 03:36:02;;;;;;;6.35;5.47;;;18.00;79.30;;;;;;4991233;28;20042;-51
2023/10/20 03:38:30;;;;;;;5.78;5.28;;;18.00;79.40;;;;;;4992003;28;20050;-50
2023/10/20 03:41:10;;;;;;;6.32;5.68;;;18.00;79.40;;;;;;4990742;28;20080;-49
2023/10/20 03:43:37;;;;;;;6.15;5.55;;;18.10;79.90;;;;;;4992466;28;20085;-48
2023/10/20 03:46:04;;;;;;;5.47;4.97;;;18.00;79.40;;;;;;4990613;28;20041;-53
2023/10/20 03:48:34;;;;;;;5.68;5.00;;;18.00;79.40;;;;;;5007039;28;20046;-50
2023/10/20 03:51:05;;;;;;;6.00;5.32;;;18.00;79.40;;;;;;4992487;28;20038;-50
2023/10/20 03:53:41;;;;;;;5.68;4.70;;;18.00;79.50;;;;;;4980481;28;20085;-51
2023/10/20 03:56:08;;;;;;;8.02;5.45;;;18.10;79.50;;;;;;4985458;28;20125;-53
2023/10/20 03:58:36;;;;;;;5.07;4.60;;;18.10;79.40;;;;;;4992717;28;20034;-51
2023/10/20 04:01:03;;;;;;;5.35;4.60;;;18.10;79.50;;;;;;4991981;28;20057;-51
2023/10/20 04:03:33;;;;;;;4.65;4.25;;;18.10;79.50;;;;;;4988859;28;20030;-51
2023/10/20 04:06:07;;;;;;;7.53;4.35;;;18.20;79.50;;;;;;4989945;28;20046;-50
2023/10/20 04:08:34;;;;;;;4.90;4.07;;;18.20;79.60;;;;;;4991476;28;20039;-53
2023/10/20 04:11:01;;;;;;;4.28;3.90;;;18.20;79.40;;;;;;4992510;28;20382;-53
2023/10/20 04:13:29;;;;;;;4.72;4.22;;;18.20;79.30;;;;;;4988033;28;20419;-51
2023/10/20 04:15:56;;;;;;;4.78;4.32;;;18.20;79.30;;;;;;4989806;28;20038;-51
2023/10/20 04:18:23;;;;;;;5.78;4.60;;;18.20;79.20;;;;;;4988270;28;20405;-53
2023/10/20 04:20:50;;;;;;;4.40;4.00;;;18.20;79.20;;;;;;4992180;28;20416;-52
2023/10/20 04:23:20;;;;;;;5.28;4.00;;;18.20;79.20;;;;;;4991119;28;20049;-50
2023/10/20 04:25:57;;;;;;;4.10;3.45;;;18.20;79.20;;;;;;4987232;28;20073;-52
2023/10/20 04:28:35;;;;;;;3.85;3.42;;;18.20;79.10;;;;;;4990553;28;20045;-52
2023/10/20 04:42:45;;;;;;;3.35;3.00;;;18.20;78.90;;;;;;4991308;28;20091;-53
2023/10/20 04:56:23;;;;;;;2.97;2.72;;;18.20;79.00;;;;;;4986994;28;20042;-53
2023/10/20 04:58:58;;;;;;;4.03;2.33;;;18.20;79.00;;;;;;4988179;28;20511;-50
2023/10/20 05:01:40;;;;;;;3.65;2.67;;;18.30;78.90;;;;;;4988861;28;20057;-49
2023/10/20 05:04:16;;;;;;;3.20;3.00;;;18.30;78.80;;;;;;4991716;28;20125;-49
2023/10/20 05:06:44;;;;;;;3.30;2.95;;;18.30;78.80;;;;;;4986014;28;20066;-53
2023/10/20 05:09:14;;;;;;;3.22;2.50;;;18.30;78.80;;;;;;4991245;28;20069;-53
2023/10/20 05:11:41;;;;;;;3.45;2.65;;;18.30;78.70;;;;;;4981682;28;20092;-49
2023/10/20 05:14:08;;;;;;;5.07;2.88;;;18.30;78.70;;;;;;4987918;28;20042;-53
2023/10/20 05:16:38;;;;;;;3.53;3.13;;;18.30;78.60;;;;;;4988141;28;20052;-52
2023/10/20 05:19:05;;;;;;;4.15;3.75;;;18.30;78.60;;;;;;4990521;28;20112;-53
2023/10/20 05:21:38;;;;;;;3.20;2.67;;;18.30;78.60;;;;;;4990274;28;20053;-50
2023/10/20 05:24:06;;;;;;;3.45;3.15;;;18.30;78.50;;;;;;4987753;28;20118;-52
2023/10/20 05:26:33;;;;;;;4.35;3.28;;;18.40;78.50;;;;;;4984691;28;20038;-52
2023/10/20 05:29:00;;;;;;;4.85;3.63;;;18.40;78.50;;;;;;4990578;28;20789;-53
2023/10/20 05:31:29;;;;;;;3.40;3.10;;;18.40;78.50;;;;;;4982164;28;20116;-50
2023/10/20 05:33:56;;;;;;;4.57;3.50;;;18.40;78.40;;;;;;4988047;28;20054;-52
2023/10/20 05:36:23;;;;;;;4.03;3.38;;;18.30;78.40;;;;;;4990074;28;20078;-53
2023/10/20 05:38:50;;;;;;;3.42;3.13;;;18.40;78.40;;;;;;4990410;28;20077;-48
2023/10/20 05:41:19;;;;;;;3.60;3.30;;;18.30;78.40;;;;;;4990233;28;20580;-51
2023/10/20 05:43:46;;;;;;;3.63;3.30;;;18.30;78.50;;;;;;4982804;28;20034;-51
2023/10/20 05:46:17;;;;;;;3.92;3.33;;;18.30;78.40;;;;;;4990145;28;20042;-53
2023/10/20 05:48:45;;;;;;;4.07;3.78;;;18.30;78.50;;;;;;4990208;28;20657;-52
2023/10/20 05:51:12;;;;;;;4.72;3.70;;;18.30;78.70;;;;;;4985723;28;20578;-50
2023/10/20 05:53:39;;;;;;;2.95;2.75;;;18.30;78.60;;;;;;4985631;28;20042;-52
2023/10/20 05:56:06;;;;;;;4.63;3.30;;;18.30;78.60;;;;;;4987587;28;20081;-53
2023/10/20 05:58:37;;;;;;;3.65;2.92;;;18.30;78.60;;;;;;4989838;28;20503;-53
2023/10/20 06:01:09;;;;;;;3.63;3.25;;;18.30;78.70;;;;;;4990023;28;20050;-53
2023/10/20 06:03:37;;;;;;;3.60;3.30;;;18.30;78.80;;;;;;4989499;28;20047;-53
2023/10/20 06:06:07;;;;;;;3.47;3.17;;;18.30;78.70;;;;;;4984669;28;20498;-52
2023/10/20 06:08:34;;;;;;;3.40;3.05;;;18.30;78.70;;;;;;4989556;28;20098;-50
2023/10/20 06:11:06;;;;;;;4.82;3.28;;;18.30;78.70;;;;;;4989807;28;20562;-51
2023/10/20 06:13:37;;;;;;;3.20;2.90;;;18.30;78.70;;;;;;4981537;28;20053;-53
2023/10/20 06:16:08;;;;;;;4.57;2.88;;;18.30;78.80;;;;;;4980971;28;20046;-50
2023/10/20 06:18:39;;;;;;;3.75;2.90;;;18.30;78.90;;;;;;4983058;28;20508;-51
2023/10/20 06:21:14;;;;;;;3.83;2.97;;;18.30;79.00;;;;;;4986032;28;20417;-54
2023/10/20 06:23:46;;;;;;;2.95;2.75;;;18.30;79.10;;;;;;4972777;28;20042;-52
2023/10/20 06:26:15;;;;;;;4.15;3.13;;;18.30;79.10;;;;;;4971478;28;20050;-48
2023/10/20 06:28:43;;;;;;;4.18;3.00;;;18.30;79.10;;;;;;4976136;28;20085;-51
2023/10/20 06:36:48;;;;;;;3.25;2.88;;;18.30;79.10;;;;;;4985127;28;20061;-53
2023/10/20 06:39:18;;;;;;;3.47;3.17;;;18.30;79.20;;;;;;4989329;28;20093;-52
2023/10/20 06:41:45;;;;;;;5.47;2.83;;;18.30;79.20;;;;;;4988365;28;20133;-52
2023/10/20 06:44:18;;;;;;;2.90;2.30;;;18.30;79.30;;;;;;4984072;28;20034;-53
2023/10/20 06:46:45;;;;;;;3.10;2.60;;;18.30;79.30;;;;;;4990192;28;20157;-54
2023/10/20 06:49:18;;;;;;;3.67;2.70;;;18.30;79.40;;;;;;4990948;28;20089;-53
2023/10/20 06:51:48;;;;;;;3.45;2.42;;;18.30;79.40;;;;;;4986309;28;20056;-53
2023/10/20 06:54:18;;;;;;;3.28;2.97;;;18.30;79.50;;;;;;4989592;28;20054;-52
2023/10/20 06:56:45;;;;;;;4.80;2.90;;;18.30;79.50;;;;;;4986547;28;20053;-52
2023/10/20 06:59:15;;;;;;;3.38;2.70;;;18.30;79.30;;;;;;4985220;28;20042;-53
2023/10/20 07:01:43;;;;;;;2.78;2.58;;;18.40;79.50;;;;;;4995030;28;20057;-53
2023/10/20 07:04:12;;;;;;;3.55;2.30;;;18.30;80.10;;;;;;4993096;28;20046;-53
2023/10/20 07:06:40;;;;;;;3.40;2.78;;;18.30;79.50;;;;;;4993244;28;20064;-53
2023/10/20 07:09:11;;;;;;;2.55;2.30;;;18.30;79.60;;;;;;4991668;28;20488;-52
2023/10/20 07:11:39;;;;;;;3.55;2.97;;;18.30;79.60;;;;;;4993250;28;20042;-53
2023/10/20 07:14:06;;;;;;;3.33;3.08;;;18.30;79.60;;;;;;4996277;28;20049;-54
2023/10/20 07:16:33;;;;;;;4.25;3.13;;;18.30;79.60;;;;;;4991585;28;20065;-51
2023/10/20 07:19:01;;;;;;;4.63;3.30;;;18.30;79.60;;;;;;4988590;28;20074;-53
2023/10/20 07:21:27;;;;;;;6.60;3.53;;;18.30;79.50;;;;;;4993378;28;20042;-51
2023/10/20 07:23:55;;;;;;;5.07;3.90;;;18.30;79.50;;;;;;4987910;28;20076;-53
2023/10/20 07:26:22;;;;;;;3.60;3.20;;;18.30;79.50;;;;;;4992821;28;20501;-52
2023/10/20 07:28:49;;;;;;;4.53;4.13;;;18.30;79.50;;;;;;4992608;28;20066;-53
2023/10/20 07:31:21;;;;;;;3.88;3.10;;;18.30;79.50;;;;;;4993193;28;20070;-52
2023/10/20 07:33:51;;;;;;;4.72;3.15;;;18.30;79.50;;;;;;4995713;28;20030;-53
2023/10/20 07:36:18;;;;;;;3.67;3.38;;;18.30;79.50;;;;;;4989733;28;20440;-51
2023/10/20 07:38:44;;;;;;;5.93;3.80;;;18.20;79.50;;;;;;4995138;28;20136;-49
2023/10/20 07:41:13;;;;;;;3.42;3.13;;;18.20;79.40;;;;;;4996539;28;20046;-52
2023/10/20 07:43:41;;;;;;;2.90;2.70;;;18.20;79.60;;;;;;4991497;28;20042;-53
2023/10/20 07:46:14;;;;;;;3.42;2.90;;;18.20;79.50;;;;;;4984254;28;20070;-53
2023/10/20 07:48:42;;;;;;;2.85;2.65;;;18.20;79.70;;;;;;4992168;28;20038;-53
2023/10/20 07:51:11;;;;;;;3.20;2.90;;;18.20;79.60;;;;;;4996517;28;20445;-53
2023/10/20 07:53:39;;;;;;;3.75;2.75;;;18.20;79.80;;;;;;4986074;28;20066;-51
2023/10/20 07:56:06;;;;;;;2.92;2.50;;;18.10;79.70;;;;;;4993239;28;20034;-53
2023/10/20 07:58:33;;;;;;;3.28;2.80;;;18.10;79.80;;;;;;4993625;28;20046;-53
2023/10/20 08:01:00;;;;;;;3.10;2.80;;;18.10;79.80;;;;;;4995912;28;20069;-51
2023/10/20 08:03:27;;;;;;;2.53;2.30;;;18.10;79.80;;;;;;4995598;28;20580;-54
2023/10/20 08:05:54;;;;;;;2.40;2.20;;;18.10;80.00;;;;;;4992104;28;20034;-53
2023/10/20 08:08:22;;;;;;;2.58;2.05;;;18.10;80.00;;;;;;4994009;28;20038;-52
2023/10/20 08:10:49;;;;;;;2.47;2.28;;;18.10;80.00;;;;;;4994291;28;20042;-53
2023/10/20 08:13:17;;;;;;;2.53;2.33;;;18.10;80.10;;;;;;4989743;28;20069;-53
2023/10/20 08:15:47;;;;;;;2.50;1.98;;;18.10;80.30;;;;;;4991414;28;20059;-50
2023/10/20 08:18:14;;;;;;;3.72;2.00;;;18.10;80.30;;;;;;4992514;28;20050;-49
2023/10/20 08:20:40;;;;;;;2.50;2.20;;;18.10;80.30;;;;;;4985324;28;20042;-53
2023/10/20 08:23:08;;;;;;;2.80;2.30;;;18.10;80.20;;;;;;4988825;28;20046;-53
2023/10/20 08:25:38;;;;;;;2.90;2.40;;;18.10;80.20;;;;;;4988443;28;20049;-52
2023/10/20 08:28:06;;;;;;;2.40;2.20;;;18.10;80.30;;;;;;4987703;28;20046;-53
2023/10/20 08:30:35;;;;;;;2.17;1.98;;;18.10;80.20;;;;;;4992051;28;20686;-53
2023/10/20 08:33:03;;;;;;;3.05;2.20;;;18.20;80.30;;;;;;4991397;28;20512;-53
2023/10/20 08:35:30;;;;;;;2.45;2.25;;;18.10;80.30;;;;;;4989037;28;20046;-53
2023/10/20 08:37:57;;;;;;;2.10;2.00;;;18.10;80.30;;;;;;4986872;28;20046;-52
2023/10/20 08:40:23;;;;;;;1.77;1.67;;;18.10;80.30;;;;;;4990383;28;20076;-50
2023/10/20 08:42:51;;;;;;;2.55;2.08;;;18.10;80.30;;;;;;4988614;28;20038;-53
2023/10/20 08:45:21;;;;;;;2.20;2.00;;;18.10;80.30;;;;;;4988678;28;20039;-52
2023/10/20 08:47:48;;;;;;;2.35;2.15;;;18.20;80.40;;;;;;4990096;28;20062;-50
2023/10/20 08:50:16;;;;;;;2.53;2.33;;;18.20;80.30;;;;;;4994602;28;20104;-53
2023/10/20 08:52:44;;;;;;;4.80;2.60;;;18.20;80.50;;;;;;4988221;28;20124;-53
2023/10/20 08:55:11;;;;;;;2.80;2.40;;;18.20;80.60;;;;;;4988935;28;20132;-53
2023/10/20 08:57:40;;;;;;;2.45;2.05;;;18.20;80.50;;;;;;4991937;28;20069;-53
2023/10/20 09:00:08;;;;;;;2.50;2.30;;;18.20;80.40;;;;;;4990872;28;20039;-51
2023/10/20 09:02:38;;;;;;;3.92;3.58;;;18.20;80.40;;;;;;4986142;28;20050;-53
2023/10/20 09:05:06;;;;;;;4.10;2.80;;;18.30;80.40;;;;;;4981855;28;20042;-53
2023/10/20 09:07:33;;;;;;;2.95;2.50;;;18.30;80.30;;;;;;4990913;28;20049;-51
2023/10/20 09:10:00;;;;;;;3.00;2.80;;;18.30;80.30;;;;;;4988300;28;20065;-53
2023/10/20 09:12:32;;;;;;;3.63;2.83;;;18.30;80.30;;;;;;4991945;28;20046;-50
2023/10/20 09:14:58;;;;;;;3.53;2.83;;;18.40;80.30;;;;;;4990458;28;20125;-53
2023/10/20 09:17:25;;;;;;;3.08;2.88;;;18.40;80.20;;;;;;4992114;28;20046;-51
2023/10/20 09:20:04;;;;;;;4.75;3.30;;;18.40;80.10;;;;;;4988093;28;20141;-53
2023/10/20 09:22:31;;;;;;;4.72;3.30;;;18.40;80.30;;;;;;4989736;28;20047;-53
2023/10/20 09:24:58;;;;;;;3.88;3.28;;;18.40;80.00;;;;;;4988696;28;20603;-52
2023/10/20 09:27:25;;;;;;;4.75;4.25;;;18.40;80.10;;;;;;4987846;28;20042;-52
2023/10/20 09:29:56;;;;;;;4.13;3.50;;;18.50;80.00;;;;;;4989480;28;20078;-53
2023/10/20 09:32:22;;;;;;;9.75;8.60;;;18.50;79.90;;;;;;4990772;28;20042;-51
2023/10/20 09:34:49;;;;;;;5.97;5.47;;;18.50;79.80;;;;;;4988959;28;20102;-53
2023/10/20 09:37:27;;;;;;;4.30;3.90;;;18.50;79.80;;;;;;4987809;28;20042;-50
2023/10/20 09:39:57;;;;;;;4.60;4.20;;;18.50;79.70;;;;;;4990039;28;20077;-50
2023/10/20 09:42:24;;;;;;;4.30;3.58;;;18.60;79.60;;;;;;4990577;28;20125;-51
2023/10/20 09:45:09;;;;;;;5.75;4.18;;;18.60;79.50;;;;;;4986759;28;20134;-51
2023/10/20 09:47:39;;;;;;;3.40;3.10;;;18.60;79.50;;;;;;4991134;28;20504;-51
2023/10/20 09:50:06;;;;;;;3.50;3.20;;;18.60;79.40;;;;;;4990143;28;20050;-50
2023/10/20 09:52:34;;;;;;;4.00;3.60;;;18.60;79.30;;;;;;4988945;28;20070;-50
2023/10/20 09:55:01;;;;;;;4.25;3.95;;;18.60;79.40;;;;;;4988333;28;20046;-50
2023/10/20 09:57:28;;;;;;;7.25;6.50;;;18.60;79.40;;;;;;4988539;28;20046;-51
2023/10/20 09:59:55;;;;;;;5.43;5.00;;;18.60;79.30;;;;;;4985414;28;20074;-51
2023/10/20 10:02:29;;;;;;;8.30;7.60;;;18.60;79.40;;;;;;4987407;28;20042;-50
2023/10/20 10:04:57;;;;;;;5.70;5.20;;;18.60;79.60;;;;;;4978421;28;20138;-51
2023/10/20 10:07:29;;;;;;;6.13;4.78;;;18.70;79.50;;;;;;4989644;28;20047;-53
2023/10/20 10:09:56;;;;;;;4.65;4.20;;;18.70;79.60;;;;;;4985190;28;20129;-53
2023/10/20 10:12:25;;;;;;;6.03;5.40;;;18.70;79.60;;;;;;4983453;28;20117;-54
2023/10/20 10:15:03;;;;;;;5.40;4.90;;;18.70;79.50;;;;;;4989473;28;20058;-50
2023/10/20 10:17:30;;;;;;;4.97;4.57;;;18.80;79.50;;;;;;4984505;28;20061;-57
2023/10/20 10:19:57;;;;;;;4.10;3.75;;;18.80;79.20;;;;;;4985906;28;20476;-58
2023/10/20 10:22:27;;;;;;;4.60;4.20;;;18.80;78.90;;;;;;4987000;28;20058;-56
2023/10/20 10:25:00;;;;;;;4.20;3.80;;;18.90;78.80;;;;;;4983686;28;20100;-57
2023/10/20 10:27:28;;;;;;;4.97;4.47;;;18.90;78.70;;;;;;4989120;28;20527;-57
2023/10/20 10:30:05;;;;;;;3.90;3.60;;;18.90;78.60;;;;;;4988888;28;20046;-56
2023/10/20 10:32:36;;;;;;;3.63;3.30;;;18.90;78.50;;;;;;4985890;28;20069;-57
2023/10/20 10:35:04;;;;;;;4.43;3.67;;;18.90;78.60;;;;;;4981526;28;20055;-56
2023/10/20 10:37:33;;;;;;;4.18;3.67;;;18.90;78.70;;;;;;4989008;28;20125;-58
2023/10/20 10:40:07;;;;;;;3.92;3.40;;;18.90;78.80;;;;;;4983709;28;20042;-57
2023/10/20 10:42:48;;;;;;;3.50;3.20;;;19.00;78.90;;;;;;4981832;28;20715;-57
2023/10/20 10:45:23;;;;;;;4.20;3.78;;;19.00;78.80;;;;;;4986967;28;20097;-57
2023/10/20 10:48:02;;;;;;;3.42;3.13;;;19.00;78.80;;;;;;4987607;28;20441;-56
2023/10/20 10:50:30;;;;;;;3.92;3.25;;;19.00;78.90;;;;;;4985588;28;20146;-57
2023/10/20 10:52:56;;;;;;;4.25;3.95;;;19.10;79.00;;;;;;4989502;28;20051;-57
2023/10/20 10:55:24;;;;;;;4.20;3.55;;;19.20;78.90;;;;;;4986640;28;20047;-56
2023/10/20 10:57:51;;;;;;;4.32;3.92;;;19.20;78.90;;;;;;4986406;28;20096;-57
2023/10/20 11:00:19;;;;;;;4.10;3.70;;;19.20;78.70;;;;;;4985370;28;20535;-57
2023/10/20 11:02:46;;;;;;;4.53;4.13;;;19.30;78.60;;;;;;4989513;28;20043;-57
2023/10/20 11:05:14;;;;;;;4.05;3.65;;;19.40;78.40;;;;;;4985132;28;20110;-57
2023/10/20 11:07:54;;;;;;;4.47;4.03;;;19.40;78.20;;;;;;4985583;28;20048;-59
2023/10/20 11:10:23;;;;;;;4.82;4.32;;;19.40;78.00;;;;;;4988943;28;20030;-57
2023/10/20 11:12:54;;;;;;;4.50;4.10;;;19.50;77.80;;;;;;4984617;28;20066;-57
2023/10/20 11:15:24;;;;;;;4.93;4.43;;;19.50;77.60;;;;;;4989828;28;20038;-57
2023/10/20 11:17:57;;;;;;;6.15;4.47;;;19.50;77.50;;;;;;4988889;28;20042;-57
2023/10/20 11:20:37;;;;;;;5.68;4.30;;;19.50;77.40;;;;;;4989201;28;20504;-58
2023/10/20 11:23:08;;;;;;;4.75;4.28;;;19.50;77.30;;;;;;4990216;28;20505;-58
2023/10/20 11:25:36;;;;;;;4.70;3.85;;;19.50;77.10;;;;;;4988939;28;20060;-58
2023/10/20 11:28:07;;;;;;;5.25;4.38;;;19.50;77.00;;;;;;4986774;28;20117;-58
2023/10/20 11:30:38;;;;;;;4.70;4.30;;;19.50;77.00;;;;;;4989126;28;20042;-57
2023/10/20 11:33:07;;;;;;;4.40;4.00;;;19.50;76.80;;;;;;4989503;28;20038;-56
2023/10/20 11:35:34;;;;;;;4.70;3.60;;;19.50;76.70;;;;;;4982166;28;20689;-57
2023/10/20 11:38:01;;;;;;;4.30;3.75;;;19.50;76.50;;;;;;4987843;28;20042;-57
2023/10/20 11:40:28;;;;;;;5.30;4.80;;;19.50;76.60;;;;;;4988843;28;20069;-57
2023/10/20 11:42:56;;;;;;;4.45;4.05;;;19.40;76.60;;;;;;4990138;28;20043;-58
2023/10/20 11:45:23;;;;;;;7.07;5.20;;;19.40;76.70;;;;;;4984202;28;20042;-58
2023/10/20 11:47:51;;;;;;;5.20;4.70;;;19.40;76.60;;;;;;4991260;28;20038;-57
2023/10/20 11:50:19;;;;;;;5.18;4.57;;;19.40;76.70;;;;;;4991866;28;20046;-57
2023/10/20 11:52:47;;;;;;;5.70;4.93;;;19.40;76.80;;;;;;4993823;28;20038;-58
2023/10/20 11:55:13;;;;;;;5.15;4.72;;;19.30;76.70;;;;;;4987787;28;20777;-57
2023/10/20 11:57:43;;;;;;;5.00;4.43;;;19.30;76.70;;;;;;4986601;28;20046;-57
2023/10/20 12:00:10;;;;;;;5.60;5.03;;;19.30;76.50;;;;;;4992881;28;20043;-57
2023/10/20 12:02:40;;;;;;;4.97;4.40;;;19.30;76.40;;;;;;4983653;28;20042;-58
2023/10/20 12:05:08;;;;;;;5.60;4.50;;;19.20;76.50;;;;;;4984487;28;20134;-57
2023/10/20 12:07:36;;;;;;;5.28;4.72;;;19.20;76.60;;;;;;4993005;28;20038;-58
2023/10/20 12:10:06;;;;;;;5.40;4.78;;;19.20;76.60;;;;;;4991813;28;20940;-58
2023/10/20 12:12:34;;;;;;;5.35;4.38;;;19.20;76.70;;;;;;4992359;28;20045;-57
2023/10/20 12:15:03;;;;;;;5.95;5.32;;;19.20;76.80;;;;;;4990124;28;20034;-57
2023/10/20 12:17:30;;;;;;;5.38;4.88;;;19.20;76.90;;;;;;4992032;28;20030;-58
2023/10/20 12:19:58;;;;;;;5.82;5.32;;;19.20;76.90;;;;;;4990030;28;20575;-57
2023/10/20 12:22:27;;;;;;;6.03;5.03;;;19.10;77.00;;;;;;4987785;28;20034;-58
2023/10/20 12:24:54;;;;;;;6.15;5.57;;;19.10;77.10;;;;;;4990429;28;20034;-56
2023/10/20 12:27:21;;;;;;;6.57;5.82;;;19.10;77.00;;;;;;4990100;28;20567;-58
2023/10/20 12:29:53;;;;;;;6.72;6.13;;;19.10;77.30;;;;;;4992232;28;20038;-57
2023/10/20 12:32:20;;;;;;;5.25;4.82;;;19.10;77.40;;;;;;4992565;28;20462;-56
2023/10/20 12:34:46;;;;;;;6.68;6.07;;;19.20;77.40;;;;;;4988675;28;20082;-57
2023/10/20 12:37:13;;;;;;;6.40;5.72;;;19.20;77.40;;;;;;4983229;28;20532;-57
2023/10/20 12:39:42;;;;;;;6.00;4.70;;;19.20;77.40;;;;;;4991765;28;20132;-58
2023/10/20 12:42:09;;;;;;;6.70;6.10;;;19.20;77.10;;;;;;4985072;28;20085;-57
2023/10/20 12:44:36;;;;;;;5.13;4.63;;;19.20;77.20;;;;;;4989704;28;20111;-56
2023/10/20 12:47:05;;;;;;;5.35;4.85;;;19.20;77.10;;;;;;4981581;28;20038;-57
2023/10/20 12:49:33;;;;;;;5.15;4.65;;;19.20;76.90;;;;;;4989269;28;20532;-57
2023/10/20 12:52:01;;;;;;;5.40;4.90;;;19.20;76.90;;;;;;4987247;28;20153;-57
2023/10/20 12:54:31;;;;;;;5.20;4.70;;;19.20;77.00;;;;;;4990961;28;20053;-57
2023/10/20 12:57:01;;;;;;;5.25;4.78;;;19.20;77.00;;;;;;4982909;28;20537;-57
2023/10/20 12:59:28;;;;;;;6.60;4.90;;;19.20;77.10;;;;;;4990464;28;20042;-57
2023/10/20 13:01:55;;;;;;;5.18;4.78;;;19.10;77.00;;;;;;4987751;28;20553;-57
2023/10/20 13:04:22;;;;;;;5.80;5.03;;;19.10;77.10;;;;;;4993579;28;20408;-58
2023/10/20 13:06:49;;;;;;;5.22;4.72;;;19.10;77.10;;;;;;5014067;23;20039;-62
2023/10/20 13:09:27;;;;;;;6.38;5.22;;;19.10;77.10;;;;;;4999330;28;20664;-62
2023/10/20 13:11:53;;;;;;;6.43;5.07;;;19.10;77.20;;;;;;5006648;28;20058;-63
2023/10/20 13:14:20;;;;;;;6.68;5.78;;;19.10;77.30;;;;;;5006630;28;20046;-62
2023/10/20 13:16:47;;;;;;;5.63;5.13;;;19.00;77.40;;;;;;5003347;28;20046;-62
2023/10/20 13:19:15;;;;;;;5.53;5.03;;;19.00;77.30;;;;;;5002303;28;20038;-62
2023/10/20 13:21:42;;;;;;;7.25;5.50;;;19.00;77.40;;;;;;4998059;28;20499;-62